Portada
METAR-TAF:

METAR-TAF

Aeroports :

Adrian, Michigan, Estats Units d'Amèrica

latitud: 41-52-04N, longitud: 084-04-46W, altitud: 244 m

Observació

L'informe es va fer fa 29 minuts, a les 07:53 UTC
Vent 16 kt del Oest amb ràfegues de 23 kt
Temperatura 7°C
Humitat 66%
Pressió 1011 hPa
Visibilitat: 16.1 km
Cel ennuvolat a una alçada de 3500 ft
Cel cobert a una alçada de 4200 ft

METAR: KADG 300753Z AUTO 28016G23KT 10SM BKN035 OVC042 07/01 A2984 RMK AO2 SLP110 T00670006

Hora: 04:22 (08:22 UTC)


TAF: manca

Observacions i pronòstics meteorològics de més de 4000 aeroports (METAR i TAF).

Les estacions disponibles són els punts grocs i vermells al mapa.

Posi el ratolí al punt desitjat per veure el nom de l'estació.

Feu clic per veure les observacions i els pronòstics meteorològics.

Per canviar el mapa: feu clic els botons verds amb una creu de color negre per apropar; al botó verd amb un guió per allunyar la imatge; o en les fletxes verdes per a mapes adjacents.


METAR-TAF: